Time;durP1;ratioP1;P1;durP2;ratioP2;P2;SDS_P1;SDS_P2;PMS_P1;PMS_P2;Temp;Humidity;BMP_temperature;BMP_pressure;BME280_temperature;BME280_humidity;BME280_pressure;Samples;Min_cycle;Max_cycle;Signal;HPM_P1;HPM_P2
2022/08/10 00:02:18;;;;;;;4.28;2.13;;;;;;;18.05;70.17;102568.31;5072010;28;20094;-74
2022/08/10 00:04:44;;;;;;;3.53;2.05;;;;;;;17.92;70.63;102562.22;5070221;28;20020;-74
2022/08/10 00:07:09;;;;;;;3.80;2.20;;;;;;;17.93;70.75;102565.72;5069973;28;20032;-73
2022/08/10 00:09:35;;;;;;;3.08;2.30;;;;;;;17.91;70.40;102565.00;5070527;28;20032;-83
2022/08/10 00:12:00;;;;;;;6.40;2.10;;;;;;;17.81;71.19;102572.88;5071705;28;20416;-74
2022/08/10 00:14:25;;;;;;;4.95;2.30;;;;;;;17.83;71.11;102565.59;5072462;28;20028;-83
2022/08/10 00:16:53;;;;;;;3.22;2.20;;;;;;;17.87;70.79;102563.53;5072053;28;20056;-83
2022/08/10 00:19:19;;;;;;;11.20;2.33;;;;;;;17.76;71.54;102564.38;5072273;28;20020;-83
2022/08/10 00:21:45;;;;;;;4.13;2.00;;;;;;;17.75;71.26;102566.19;5072481;28;20021;-74
2022/08/10 00:24:10;;;;;;;3.00;2.40;;;;;;;17.68;71.56;102569.44;5071836;28;20036;-82
2022/08/10 00:26:36;;;;;;;5.05;2.42;;;;;;;17.64;71.79;102557.31;5072370;28;20371;-73
2022/08/10 00:29:01;;;;;;;8.00;2.50;;;;;;;17.60;71.93;102558.47;5073473;28;20024;-83
2022/08/10 00:31:27;;;;;;;3.40;2.55;;;;;;;17.53;72.01;102561.63;5071896;28;20016;-83
2022/08/10 00:33:52;;;;;;;4.07;2.20;;;;;;;17.57;72.14;102550.72;5071720;28;20028;-82
2022/08/10 00:36:18;;;;;;;6.13;2.40;;;;;;;17.53;71.99;102550.97;5071662;28;20036;-82
2022/08/10 00:38:43;;;;;;;5.35;2.28;;;;;;;17.50;72.11;102551.22;5071749;28;20064;-73
2022/08/10 00:41:08;;;;;;;3.85;2.55;;;;;;;17.51;71.95;102552.06;5070631;28;20112;-73
2022/08/10 00:43:34;;;;;;;6.35;2.40;;;;;;;17.45;72.23;102542.72;5071428;28;20036;-83
2022/08/10 00:45:59;;;;;;;3.92;2.58;;;;;;;17.43;72.54;102549.97;5069122;28;20109;-83
2022/08/10 00:48:24;;;;;;;5.50;2.55;;;;;;;17.45;72.07;102537.41;5072103;28;20077;-74
2022/08/10 00:50:50;;;;;;;4.05;2.38;;;;;;;17.42;72.27;102548.28;5070353;28;20551;-73
2022/08/10 00:53:15;;;;;;;3.22;2.60;;;;;;;17.39;72.32;102542.34;5069495;28;20017;-73
2022/08/10 00:55:41;;;;;;;7.25;2.45;;;;;;;17.40;72.45;102539.56;5070985;28;20040;-73
2022/08/10 00:58:07;;;;;;;6.40;2.33;;;;;;;17.38;72.49;102536.19;5070525;28;20024;-73
2022/08/10 01:00:33;;;;;;;3.28;2.42;;;;;;;17.42;72.30;102540.31;5070446;28;20020;-73
2022/08/10 01:02:58;;;;;;;3.80;2.53;;;;;;;17.39;72.31;102542.34;5072050;28;20028;-75
2022/08/10 01:05:25;;;;;;;3.78;2.40;;;;;;;17.39;72.40;102543.19;5071400;28;20107;-73
2022/08/10 01:08:12;;;;;;;3.30;2.47;;;;;;;17.40;71.82;102544.91;5072203;28;20031;-83
2022/08/10 01:10:50;;;;;;;7.05;2.47;;;;;;;17.36;72.52;102543.44;5070747;28;20051;-74
2022/08/10 01:13:32;;;;;;;4.13;2.28;;;;;;;17.36;72.77;102543.44;5068309;28;20505;-83
2022/08/10 01:16:09;;;;;;;5.28;2.50;;;;;;;17.34;72.79;102534.72;5068720;28;20063;-85
2022/08/10 01:19:05;;;;;;;4.47;2.60;;;;;;;17.29;72.17;102539.53;5069854;28;20097;-84
2022/08/10 01:22:07;;;;;;;3.55;2.88;;;;;;;17.26;72.37;102534.44;5070798;28;20028;-84
2022/08/10 01:25:09;;;;;;;4.32;2.67;;;;;;;17.25;72.60;102529.25;5050955;28;20017;-84
2022/08/10 01:27:59;;;;;;;3.47;2.70;;;;;;;17.21;72.69;102539.25;5049263;28;20032;-82
2022/08/10 01:30:29;;;;;;;5.75;2.60;;;;;;;17.19;73.38;102541.19;5051577;28;20555;-83
2022/08/10 01:33:03;;;;;;;5.57;2.75;;;;;;;17.15;73.63;102535.25;5049436;28;20024;-74
2022/08/10 01:35:37;;;;;;;2.97;2.35;;;;;;;17.17;73.49;102532.47;5050165;28;20027;-74
2022/08/10 01:38:10;;;;;;;2.97;2.67;;;;;;;17.12;73.54;102535.47;5056815;28;20377;-83
2022/08/10 01:40:48;;;;;;;5.05;2.90;;;;;;;17.12;73.67;102534.63;5070434;28;20129;-83
2022/08/10 01:43:18;;;;;;;4.25;2.75;;;;;;;17.14;73.54;102538.00;5070375;28;20059;-83
2022/08/10 01:45:47;;;;;;;7.68;2.90;;;;;;;17.02;73.71;102549.56;5071694;28;20047;-83
2022/08/10 01:48:30;;;;;;;4.13;3.03;;;;;;;16.99;73.99;102541.81;5069869;28;20032;-83
2022/08/10 01:51:03;;;;;;;4.38;2.90;;;;;;;16.93;74.40;102537.81;5071230;28;20024;-83
2022/08/10 01:53:38;;;;;;;4.82;3.20;;;;;;;16.87;74.62;102535.59;5070912;28;20025;-84
2022/08/10 01:56:04;;;;;;;4.45;2.90;;;;;;;16.90;74.68;102538.03;5070286;28;20031;-83
2022/08/10 01:58:32;;;;;;;12.38;3.25;;;;;;;16.82;75.10;102532.44;5071649;28;20029;-82
2022/08/10 02:01:00;;;;;;;3.15;2.85;;;;;;;16.81;74.71;102536.03;5070569;28;20043;-83
2022/08/10 02:03:28;;;;;;;3.47;2.88;;;;;;;16.82;74.85;102538.59;5068893;28;20091;-83
2022/08/10 02:05:55;;;;;;;4.60;3.20;;;;;;;16.77;74.91;102538.06;5070400;28;20032;-83
2022/08/10 02:08:23;;;;;;;4.10;2.95;;;;;;;16.74;75.21;102535.63;5070290;28;20021;-82
2022/08/10 02:10:53;;;;;;;4.30;3.20;;;;;;;16.69;75.36;102537.78;5070108;28;20105;-82
2022/08/10 02:13:21;;;;;;;4.38;3.47;;;;;;;16.69;75.44;102539.59;5068589;28;20028;-82
2022/08/10 02:15:48;;;;;;;3.80;3.33;;;;;;;16.63;75.66;102542.66;5068840;28;20059;-82
2022/08/10 02:18:15;;;;;;;4.55;2.92;;;;;;;16.61;75.68;102540.13;5068555;28;20035;-82
2022/08/10 02:20:46;;;;;;;4.22;2.60;;;;;;;16.60;76.06;102539.28;5070482;28;20158;-84
2022/08/10 02:23:20;;;;;;;4.47;3.17;;;;;;;16.54;76.26;102530.91;5069854;28;20032;-82
2022/08/10 02:25:46;;;;;;;5.25;3.20;;;;;;;16.51;76.48;102528.47;5071184;28;20027;-82
2022/08/10 02:28:16;;;;;;;4.18;3.10;;;;;;;16.49;76.57;102525.06;5069791;28;20033;-82
2022/08/10 02:30:43;;;;;;;6.93;3.38;;;;;;;16.41;76.72;102527.41;5069798;28;20412;-82
2022/08/10 02:33:09;;;;;;;5.25;3.20;;;;;;;16.43;77.06;102525.53;5069626;28;20033;-84
2022/08/10 02:35:36;;;;;;;7.32;3.25;;;;;;;16.45;77.06;102528.91;5068784;28;20024;-82
2022/08/10 02:38:04;;;;;;;4.32;3.45;;;;;;;16.39;77.23;102532.00;5068856;28;20036;-83
2022/08/10 02:40:34;;;;;;;3.67;3.30;;;;;;;16.42;76.91;102531.78;5069109;28;20075;-82
2022/08/10 02:43:24;;;;;;;5.88;3.55;;;;;;;16.39;76.81;102534.66;5069559;28;20039;-83
2022/08/10 02:45:58;;;;;;;4.80;3.47;;;;;;;16.35;77.43;102527.84;5070741;28;20063;-83
2022/08/10 02:48:31;;;;;;;3.65;3.10;;;;;;;16.32;77.63;102531.56;5068641;28;20078;-83
2022/08/10 02:51:04;;;;;;;6.30;3.95;;;;;;;16.32;77.54;102520.09;5069514;28;20031;-83
2022/08/10 02:53:39;;;;;;;5.43;3.78;;;;;;;16.31;77.48;102527.22;5068795;28;20075;-83
2022/08/10 02:56:23;;;;;;;6.75;3.50;;;;;;;16.28;77.93;102527.44;5069288;28;20025;-73
2022/08/10 02:59:00;;;;;;;4.13;3.80;;;;;;;16.28;77.42;102522.97;5070586;28;20089;-83
2022/08/10 03:01:39;;;;;;;4.22;3.83;;;;;;;16.28;77.38;102515.00;5069837;28;20478;-82
2022/08/10 03:04:10;;;;;;;5.47;3.88;;;;;;;16.18;78.02;102516.63;5068340;28;20500;-82
2022/08/10 03:06:40;;;;;;;5.95;4.10;;;;;;;16.20;78.20;102511.22;5067788;28;20110;-82
2022/08/10 03:09:08;;;;;;;4.10;3.70;;;;;;;16.18;78.24;102508.66;5068838;28;20099;-82
2022/08/10 03:11:36;;;;;;;4.50;3.95;;;;;;;16.10;78.54;102511.03;5069692;28;20037;-83
2022/08/10 03:14:03;;;;;;;4.88;4.10;;;;;;;16.07;78.91;102513.91;5068207;28;20128;-83
2022/08/10 03:16:31;;;;;;;4.75;4.25;;;;;;;16.05;78.89;102507.84;5072728;28;20097;-82
2022/08/10 03:19:01;;;;;;;7.20;3.80;;;;;;;16.11;78.83;102507.41;5072500;28;20020;-82
2022/08/10 03:21:27;;;;;;;4.65;4.10;;;;;;;16.01;78.57;102501.06;5073359;28;20031;-82
2022/08/10 03:23:55;;;;;;;7.63;4.60;;;;;;;15.99;79.32;102502.94;5073022;28;20143;-83
2022/08/10 03:26:22;;;;;;;6.55;4.25;;;;;;;16.02;79.11;102505.41;5072839;28;20025;-74
2022/08/10 03:28:48;;;;;;;6.07;4.10;;;;;;;16.11;78.96;102501.25;5072310;28;20085;-73
2022/08/10 03:31:14;;;;;;;5.07;4.13;;;;;;;16.02;79.07;102501.91;5071087;28;20052;-73
2022/08/10 03:33:41;;;;;;;7.95;4.97;;;;;;;15.97;79.42;102502.19;5072365;28;20390;-83
2022/08/10 03:36:07;;;;;;;7.03;4.57;;;;;;;15.94;79.67;102491.81;5072158;28;20028;-82
2022/08/10 03:38:33;;;;;;;6.07;5.05;;;;;;;15.88;79.70;102502.84;5072341;28;20028;-82
2022/08/10 03:41:02;;;;;;;7.55;4.78;;;;;;;15.85;79.89;102505.72;5071746;28;20037;-74
2022/08/10 03:43:28;;;;;;;6.25;4.70;;;;;;;15.89;79.67;102499.25;5054311;28;20021;-74
2022/08/10 03:45:57;;;;;;;5.47;4.97;;;;;;;15.79;80.49;102509.66;5052620;28;20028;-83
2022/08/10 03:48:25;;;;;;;5.90;4.72;;;;;;;15.71;81.02;102511.16;5052480;28;20021;-83
2022/08/10 03:50:50;;;;;;;8.02;6.25;;;;;;;15.78;80.31;102504.47;5053139;28;20071;-83
2022/08/10 03:53:17;;;;;;;11.00;8.30;;;;;;;15.72;80.85;102510.19;5050481;28;20503;-83
2022/08/10 03:55:43;;;;;;;5.32;4.82;;;;;;;15.72;80.66;102507.53;5052195;28;20395;-83
2022/08/10 03:58:09;;;;;;;7.43;4.63;;;;;;;15.70;80.78;102512.97;5052620;28;20398;-83
2022/08/10 04:00:35;;;;;;;5.43;4.82;;;;;;;15.63;81.18;102509.88;5052600;28;20029;-83
2022/08/10 04:03:04;;;;;;;5.70;5.05;;;;;;;15.65;81.33;102510.63;5051868;28;20035;-83
2022/08/10 04:05:33;;;;;;;6.00;5.07;;;;;;;15.61;81.41;102513.59;5052144;28;20114;-74
2022/08/10 04:08:00;;;;;;;5.25;4.85;;;;;;;15.56;81.80;102507.69;5051626;28;20025;-74
2022/08/10 04:10:26;;;;;;;10.15;5.00;;;;;;;15.59;81.61;102510.16;5083827;28;20079;-74
2022/08/10 04:12:52;;;;;;;5.15;4.72;;;;;;;15.57;81.78;102504.09;5052076;28;20028;-83
2022/08/10 04:15:18;;;;;;;5.82;5.15;;;;;;;15.53;82.04;102514.06;5053337;28;19917;-83
2022/08/10 04:17:43;;;;;;;7.45;5.00;;;;;;;15.54;82.03;102505.16;5051612;28;20032;-73
2022/08/10 04:20:27;;;;;;;7.68;5.50;;;;;;;15.58;81.43;102516.44;5051104;28;20086;-73
2022/08/10 04:22:55;;;;;;;6.68;5.35;;;;;;;15.47;82.37;102509.19;5058785;28;20021;-83
2022/08/10 04:25:23;;;;;;;5.97;5.40;;;;;;;15.48;82.41;102513.53;5072124;28;20097;-83
2022/08/10 04:27:49;;;;;;;5.85;5.32;;;;;;;15.49;82.49;102520.53;5072848;28;20051;-82
2022/08/10 04:30:15;;;;;;;6.35;5.18;;;;;;;15.50;82.60;102511.63;5071270;28;20028;-83
2022/08/10 04:32:42;;;;;;;6.32;5.60;;;;;;;15.44;82.73;102519.16;5072216;28;20032;-83
2022/08/10 04:35:09;;;;;;;8.77;5.45;;;;;;;15.38;83.10;102520.41;5072750;28;20033;-83
2022/08/10 04:37:36;;;;;;;5.78;5.18;;;;;;;15.42;83.13;102521.91;5069659;28;20039;-83
2022/08/10 04:40:03;;;;;;;6.93;5.32;;;;;;;15.35;83.33;102515.31;5071173;28;20072;-74
2022/08/10 04:42:29;;;;;;;7.53;5.60;;;;;;;15.36;83.31;102517.88;5073391;28;20020;-74
2022/08/10 04:44:55;;;;;;;6.78;5.57;;;;;;;15.38;83.60;102514.25;5072392;28;20063;-83
2022/08/10 04:47:21;;;;;;;6.30;5.50;;;;;;;15.40;83.55;102521.16;5073421;28;20626;-73
2022/08/10 04:49:46;;;;;;;7.53;5.55;;;;;;;15.39;83.64;102516.81;5073677;28;20032;-83
2022/08/10 04:52:12;;;;;;;6.07;5.47;;;;;;;15.46;83.13;102512.78;5069875;28;20063;-74
2022/08/10 04:54:38;;;;;;;8.23;5.43;;;;;;;15.47;83.23;102503.88;5072129;28;20120;-83
2022/08/10 04:57:03;;;;;;;6.53;5.82;;;;;;;15.47;83.57;102503.88;5071399;28;20082;-83
2022/08/10 04:59:29;;;;;;;7.07;6.13;;;;;;;15.44;83.63;102498.78;5072536;28;20029;-83
2022/08/10 05:01:54;;;;;;;6.28;5.68;;;;;;;15.42;83.79;102502.50;5071834;28;20078;-83
2022/08/10 05:04:19;;;;;;;6.80;6.10;;;;;;;15.44;84.14;102503.22;5070318;28;20016;-83
2022/08/10 05:06:45;;;;;;;6.75;5.68;;;;;;;15.49;83.97;102501.97;5070487;28;20032;-82
2022/08/10 05:09:10;;;;;;;8.55;6.50;;;;;;;15.47;84.20;102505.69;5072629;28;20558;-84
2022/08/10 05:11:35;;;;;;;6.47;5.80;;;;;;;15.49;84.13;102506.41;5070681;28;20001;-83
2022/08/10 05:14:01;;;;;;;6.53;5.90;;;;;;;15.47;84.27;102498.56;5069200;28;20067;-74
2022/08/10 05:16:26;;;;;;;8.70;6.03;;;;;;;15.54;84.33;102502.50;5072243;28;20112;-83
2022/08/10 05:18:52;;;;;;;9.60;6.38;;;;;;;15.56;84.01;102499.72;5072589;28;20115;-84
2022/08/10 05:21:17;;;;;;;6.43;5.82;;;;;;;15.64;83.68;102498.31;5070512;28;20077;-84
2022/08/10 05:23:42;;;;;;;7.03;5.60;;;;;;;15.65;84.12;102502.66;5072011;28;20020;-84
2022/08/10 05:26:08;;;;;;;8.38;6.00;;;;;;;15.68;84.30;102508.72;5068838;28;20115;-83
2022/08/10 05:28:33;;;;;;;6.80;5.78;;;;;;;15.70;83.76;102501.50;5071907;28;20108;-74
2022/08/10 05:30:58;;;;;;;7.45;6.28;;;;;;;15.74;84.10;102510.94;5070270;28;20060;-84
2022/08/10 05:33:24;;;;;;;7.85;6.03;;;;;;;15.81;83.52;102513.06;5072610;28;20652;-84
2022/08/10 05:35:49;;;;;;;7.38;6.30;;;;;;;15.86;83.41;102521.53;5071779;28;20024;-83
2022/08/10 05:38:16;;;;;;;7.60;6.57;;;;;;;15.86;83.53;102523.34;5071481;28;20024;-83
2022/08/10 05:40:43;;;;;;;9.63;6.32;;;;;;;15.91;83.47;102518.56;5068690;28;20052;-83
2022/08/10 05:43:08;;;;;;;10.73;6.22;;;;;;;15.91;83.46;102519.41;5056469;28;20478;-83
2022/08/10 05:45:34;;;;;;;8.65;7.05;;;;;;;15.94;83.60;102519.19;5053465;28;20097;-83
2022/08/10 05:47:59;;;;;;;9.63;6.60;;;;;;;16.00;83.33;102515.25;5050831;28;20517;-83
2022/08/10 05:50:28;;;;;;;8.15;6.78;;;;;;;16.03;83.34;102523.03;5052474;28;20101;-84
2022/08/10 05:52:53;;;;;;;9.50;7.15;;;;;;;16.07;83.68;102521.00;5050623;28;20025;-83
2022/08/10 05:55:19;;;;;;;8.57;7.15;;;;;;;16.15;83.46;102522.16;5084575;28;20158;-74
2022/08/10 05:57:46;;;;;;;8.80;7.25;;;;;;;16.21;82.95;102520.88;5050678;28;20044;-83
2022/08/10 06:00:14;;;;;;;10.20;7.05;;;;;;;16.32;82.53;102517.44;5051420;28;20196;-83
2022/08/10 06:02:43;;;;;;;9.18;7.32;;;;;;;16.34;82.34;102526.16;5067415;28;20032;-83
2022/08/10 06:05:12;;;;;;;7.13;6.47;;;;;;;16.43;82.47;102525.53;5050295;28;20021;-84
2022/08/10 06:07:48;;;;;;;8.70;7.20;;;;;;;16.47;81.75;102524.34;5050584;28;20035;-74
2022/08/10 06:10:15;;;;;;;7.90;7.10;;;;;;;16.54;81.88;102523.78;5050845;28;20512;-83
2022/08/10 06:12:42;;;;;;;8.95;7.40;;;;;;;16.58;81.68;102527.06;5050907;28;20036;-83
2022/08/10 06:15:09;;;;;;;10.65;7.60;;;;;;;16.64;81.55;102523.94;5050014;28;20454;-83
2022/08/10 06:17:35;;;;;;;9.27;7.72;;;;;;;16.61;80.91;102527.69;5050460;28;20033;-83
2022/08/10 06:20:00;;;;;;;9.25;8.25;;;;;;;16.63;81.30;102516.94;5051597;28;20017;-73
2022/08/10 06:22:27;;;;;;;9.48;7.32;;;;;;;16.67;81.81;102529.06;5054760;28;20021;-83
2022/08/10 06:24:55;;;;;;;8.43;7.63;;;;;;;16.72;81.36;102534.91;5073219;28;20048;-83
2022/08/10 06:27:20;;;;;;;9.10;8.23;;;;;;;16.79;81.09;102533.50;5071696;28;20050;-83
2022/08/10 06:29:47;;;;;;;10.75;8.50;;;;;;;16.91;80.65;102537.06;5069747;28;20396;-83
2022/08/10 06:32:15;;;;;;;10.27;8.45;;;;;;;16.92;80.24;102529.00;5071642;28;20040;-82
2022/08/10 06:34:53;;;;;;;10.00;8.13;;;;;;;16.94;80.11;102528.03;5070282;28;20024;-83
2022/08/10 06:37:23;;;;;;;9.10;8.20;;;;;;;17.04;80.50;102529.03;5068838;28;20021;-83
2022/08/10 06:39:48;;;;;;;9.15;7.50;;;;;;;17.07;79.27;102526.13;5070552;28;20071;-74
2022/08/10 06:42:19;;;;;;;11.52;7.70;;;;;;;17.15;79.49;102523.75;5070609;28;20067;-83
2022/08/10 06:45:13;;;;;;;9.65;7.78;;;;;;;17.23;78.81;102522.22;5070678;28;20450;-83
2022/08/10 06:47:52;;;;;;;9.55;8.35;;;;;;;17.33;79.02;102522.38;5069382;28;20482;-83
2022/08/10 06:50:22;;;;;;;9.80;7.97;;;;;;;17.44;78.21;102519.75;5071350;28;20017;-82
2022/08/10 06:52:50;;;;;;;9.23;8.25;;;;;;;17.55;78.04;102516.25;5073294;28;20025;-82
2022/08/10 06:55:17;;;;;;;8.60;7.65;;;;;;;17.67;77.26;102515.34;5073775;28;20029;-82
2022/08/10 06:57:43;;;;;;;10.38;8.02;;;;;;;17.77;76.88;102516.34;5073596;28;20020;-82
2022/08/10 07:00:11;;;;;;;10.75;7.55;;;;;;;17.88;76.96;102520.81;5073547;28;20385;-82
2022/08/10 07:02:58;;;;;;;8.48;7.60;;;;;;;17.99;76.01;102531.47;5072413;28;20052;-82
2022/08/10 07:05:27;;;;;;;10.65;7.93;;;;;;;18.08;74.73;102530.78;5073682;28;20394;-83
2022/08/10 07:07:57;;;;;;;13.52;8.23;;;;;;;18.21;74.83;102527.13;5073615;28;20387;-84
2022/08/10 07:10:25;;;;;;;9.90;7.53;;;;;;;18.33;73.61;102532.31;5074258;28;20069;-84
2022/08/10 07:12:55;;;;;;;10.02;7.03;;;;;;;18.52;73.38;102533.53;5073223;28;20070;-84
2022/08/10 07:15:24;;;;;;;8.70;7.50;;;;;;;18.71;71.80;102529.25;5072138;28;20044;-84
2022/08/10 07:17:51;;;;;;;19.10;7.40;;;;;;;18.86;70.88;102529.84;5074036;28;20082;-84
2022/08/10 07:20:19;;;;;;;8.82;7.20;;;;;;;19.14;70.48;102527.53;5071343;28;20024;-75
2022/08/10 07:22:48;;;;;;;9.88;6.93;;;;;;;19.29;69.75;102529.78;5073760;28;20103;-84
2022/08/10 07:25:16;;;;;;;9.95;7.30;;;;;;;19.50;68.47;102531.59;5072619;28;20381;-84
2022/08/10 07:27:43;;;;;;;9.65;6.50;;;;;;;19.61;68.02;102528.88;5072123;28;20021;-74
2022/08/10 07:30:09;;;;;;;8.23;6.78;;;;;;;19.73;67.41;102527.84;5072424;28;20032;-75
2022/08/10 07:32:35;;;;;;;9.13;6.78;;;;;;;19.93;66.41;102526.97;5070713;28;20103;-74
2022/08/10 07:35:02;;;;;;;7.78;6.65;;;;;;;20.22;66.28;102531.59;5072206;28;20024;-84
2022/08/10 07:37:30;;;;;;;8.55;6.45;;;;;;;20.34;64.72;102527.81;5072960;28;20032;-84
2022/08/10 07:39:58;;;;;;;7.07;6.30;;;;;;;20.47;64.67;102539.19;5071637;28;20081;-83
2022/08/10 07:42:27;;;;;;;8.02;6.28;;;;;;;20.58;64.10;102531.03;5072970;28;20096;-83
2022/08/10 07:44:53;;;;;;;7.45;6.60;;;;;;;20.71;63.65;102535.25;5072712;28;20509;-84
2022/08/10 07:48:05;;;;;;;6.80;6.20;;;;;;;20.89;63.56;102528.25;5072190;28;20060;-84
2022/08/10 07:50:33;;;;;;;9.48;6.07;;;;;;;21.06;62.03;102530.22;5045162;28;20037;-83
2022/08/10 07:53:01;;;;;;;9.50;5.90;;;;;;;21.22;61.94;102530.53;5072137;28;20044;-84
2022/08/10 07:55:27;;;;;;;6.43;5.50;;;;;;;21.49;60.95;102526.28;5070809;28;20024;-84
2022/08/10 07:57:56;;;;;;;14.75;6.65;;;;;;;21.61;60.35;102525.13;5071126;28;20086;-84
2022/08/10 08:00:24;;;;;;;6.43;5.80;;;;;;;21.83;59.61;102516.75;5071185;28;20013;-84
2022/08/10 08:02:58;;;;;;;8.50;5.78;;;;;;;21.95;59.13;102525.44;5072009;28;20482;-84
2022/08/10 08:05:26;;;;;;;7.65;6.20;;;;;;;22.08;57.89;102530.53;5072877;28;20017;-84
2022/08/10 08:07:53;;;;;;;13.90;6.22;;;;;;;22.27;58.16;102530.41;5071756;28;20052;-84
2022/08/10 08:10:23;;;;;;;17.48;6.05;;;;;;;22.50;57.03;102526.34;5072217;28;20024;-84
2022/08/10 08:12:51;;;;;;;11.18;6.00;;;;;;;22.80;57.23;102527.84;5071642;28;20059;-84
2022/08/10 08:15:23;;;;;;;11.82;6.28;;;;;;;23.02;56.18;102523.03;5053945;28;20032;-84
2022/08/10 08:17:50;;;;;;;8.95;5.40;;;;;;;23.02;54.77;102525.72;5072537;28;20107;-84
2022/08/10 08:20:17;;;;;;;9.40;5.18;;;;;;;23.09;54.89;102524.94;5071760;28;20043;-84
2022/08/10 08:22:45;;;;;;;5.57;4.97;;;;;;;23.21;55.55;102522.84;5071775;28;20039;-84
2022/08/10 08:25:12;;;;;;;7.05;5.63;;;;;;;23.45;55.19;102520.38;5072086;28;20023;-84
2022/08/10 08:27:39;;;;;;;11.10;5.65;;;;;;;23.47;53.62;102527.44;5075996;28;20021;-83
2022/08/10 08:30:07;;;;;;;7.50;6.18;;;;;;;23.53;53.75;102527.66;5070690;28;20128;-83
2022/08/10 08:32:37;;;;;;;9.73;6.40;;;;;;;23.66;53.87;102522.75;5074058;28;20047;-83
2022/08/10 08:35:15;;;;;;;12.77;6.78;;;;;;;23.78;54.12;102520.63;5071607;28;20134;-83
2022/08/10 08:37:45;;;;;;;9.50;6.13;;;;;;;23.74;52.66;102514.72;5071865;28;20032;-83
2022/08/10 08:40:38;;;;;;;8.15;5.80;;;;;;;24.02;52.61;102517.25;5070736;28;20049;-83
2022/08/10 08:43:29;;;;;;;7.82;5.97;;;;;;;24.15;53.12;102516.78;5059956;28;20809;-84
2022/08/10 08:46:37;;;;;;;8.43;5.35;;;;;;;24.55;53.07;102516.94;5071380;28;20398;-83
2022/08/10 08:49:11;;;;;;;9.95;5.80;;;;;;;24.51;50.68;102520.13;5071014;28;20443;-83
2022/08/10 08:51:48;;;;;;;10.45;5.97;;;;;;;24.49;50.34;102519.47;5071823;28;20028;-84
2022/08/10 08:54:37;;;;;;;11.88;6.60;;;;;;;24.73;52.17;102524.03;5070200;28;20033;-84
2022/08/10 08:57:38;;;;;;;10.02;6.15;;;;;;;24.76;51.41;102521.84;5069053;28;20109;-74
2022/08/10 09:00:42;;;;;;;6.03;5.38;;;;;;;25.08;51.93;102520.25;5070285;28;20017;-75
2022/08/10 09:03:46;;;;;;;11.85;6.00;;;;;;;25.36;50.65;102521.59;5046346;28;20037;-75
2022/08/10 09:06:30;;;;;;;6.97;6.03;;;;;;;25.47;49.41;102513.16;5070767;28;20741;-83
2022/08/10 09:09:08;;;;;;;11.25;5.97;;;;;;;25.68;49.07;102506.41;5071310;28;20029;-83
2022/08/10 09:11:49;;;;;;;9.90;5.05;;;;;;;25.73;48.05;102504.03;5071545;28;20056;-74
2022/08/10 09:14:37;;;;;;;8.27;5.72;;;;;;;25.84;49.23;102496.41;5070075;28;20035;-74
2022/08/10 09:17:15;;;;;;;6.97;5.75;;;;;;;25.73;47.81;102498.66;5070594;28;20024;-73
2022/08/10 09:20:38;;;;;;;6.20;5.53;;;;;;;25.98;49.83;102499.38;5070450;28;20027;-74
2022/08/10 09:23:23;;;;;;;8.20;5.35;;;;;;;26.18;48.57;102497.97;4992257;28;20040;-74
2022/08/10 09:25:56;;;;;;;7.45;5.00;;;;;;;26.20;46.83;102501.31;4992042;28;20033;-74
2022/08/10 09:28:26;;;;;;;7.68;5.53;;;;;;;26.22;46.13;102491.19;5057376;28;20482;-74
2022/08/10 09:31:03;;;;;;;8.75;4.72;;;;;;;26.38;46.80;102488.44;5071559;28;20069;-83
2022/08/10 09:33:53;;;;;;;6.82;5.03;;;;;;;26.32;45.95;102483.72;5069827;28;20553;-83
2022/08/10 09:36:29;;;;;;;7.18;5.30;;;;;;;26.14;45.13;102485.84;5069986;28;20470;-74
2022/08/10 09:39:06;;;;;;;13.73;5.25;;;;;;;26.12;45.58;102475.22;5069721;28;20072;-74
2022/08/10 09:41:38;;;;;;;10.27;5.70;;;;;;;26.08;45.06;102475.75;5070031;28;20106;-83
2022/08/10 09:44:42;;;;;;;9.27;5.05;;;;;;;26.21;46.27;102482.25;5070307;28;20071;-82
2022/08/10 09:47:13;;;;;;;6.20;4.53;;;;;;;26.48;45.21;102475.56;5068393;28;20386;-74
2022/08/10 09:50:01;;;;;;;8.65;4.70;;;;;;;26.54;45.35;102472.16;5069625;28;20024;-83
2022/08/10 09:52:50;;;;;;;8.50;4.60;;;;;;;26.73;44.59;102473.53;5071471;28;20028;-74
2022/08/10 09:55:26;;;;;;;10.70;5.15;;;;;;;26.78;43.93;102463.00;5069303;28;20938;-82
2022/08/10 09:58:11;;;;;;;10.48;5.18;;;;;;;26.78;42.83;102467.56;5070110;28;20088;-83
2022/08/10 10:01:01;;;;;;;6.20;4.70;;;;;;;27.09;44.35;102470.22;5070723;28;20115;-83
2022/08/10 10:03:54;;;;;;;9.23;4.93;;;;;;;27.14;43.33;102457.84;5071122;28;20043;-74
2022/08/10 10:06:28;;;;;;;8.35;3.80;;;;;;;27.36;43.37;102456.09;5069623;28;20027;-74
2022/08/10 10:09:08;;;;;;;7.45;4.50;;;;;;;27.42;42.19;102455.38;5070112;28;20027;-83
2022/08/10 10:11:55;;;;;;;6.45;4.32;;;;;;;27.43;43.17;102446.22;5069659;28;20048;-83
2022/08/10 10:17:45;;;;;;;10.07;4.50;;;;;;;27.82;42.53;102445.13;5073404;28;20031;-74
2022/08/10 10:20:27;;;;;;;8.88;3.83;;;;;;;27.78;42.83;102438.44;5071503;28;20480;-83
2022/08/10 10:23:15;;;;;;;5.47;3.70;;;;;;;28.03;41.59;102441.66;5068888;28;20024;-75
2022/08/10 10:25:50;;;;;;;6.00;3.40;;;;;;;28.40;39.03;102429.78;5075195;28;20542;-84
2022/08/10 10:28:24;;;;;;;9.02;3.47;;;;;;;28.46;40.67;102431.75;5075615;28;20045;-74
2022/08/10 10:31:17;;;;;;;8.75;2.90;;;;;;;28.69;40.21;102432.38;5075585;28;20044;-82
2022/08/10 10:33:53;;;;;;;5.35;3.35;;;;;;;28.64;37.89;102426.72;5076365;28;20037;-83
2022/08/10 10:36:20;;;;;;;5.82;2.65;;;;;;;28.84;37.14;102418.81;5075323;28;20020;-82
2022/08/10 10:38:47;;;;;;;9.00;2.58;;;;;;;28.89;36.26;102426.34;5074838;28;20457;-82
2022/08/10 10:41:35;;;;;;;6.13;2.30;;;;;;;28.97;37.99;102421.59;5074144;28;20055;-74
2022/08/10 10:44:23;;;;;;;5.38;3.10;;;;;;;28.73;36.29;102421.16;5074601;28;20024;-82
2022/08/10 10:46:55;;;;;;;5.07;2.58;;;;;;;28.36;36.66;102414.97;5075166;28;20028;-74
2022/08/10 10:49:45;;;;;;;4.67;2.47;;;;;;;28.51;37.93;102413.06;5074094;28;20048;-75
2022/08/10 10:52:48;;;;;;;6.25;2.42;;;;;;;28.63;37.17;102402.53;5078901;28;20215;-84
2022/08/10 10:55:19;;;;;;;5.47;2.90;;;;;;;28.82;35.00;102393.75;5075310;28;20024;-83
2022/08/10 10:58:12;;;;;;;5.03;2.78;;;;;;;28.99;35.77;102395.16;5073556;28;20489;-74
2022/08/10 11:01:08;;;;;;;6.30;3.42;;;;;;;29.06;35.31;102392.47;5074639;28;20086;-83
2022/08/10 11:04:14;;;;;;;9.57;2.80;;;;;;;28.92;35.06;102379.88;5073858;28;20466;-74
2022/08/10 11:07:09;;;;;;;4.60;2.40;;;;;;;29.01;34.70;102387.66;5073304;28;20071;-75
2022/08/10 11:09:41;;;;;;;3.97;2.17;;;;;;;29.13;34.07;102378.97;5075440;28;20028;-84
2022/08/10 11:12:20;;;;;;;4.15;2.38;;;;;;;29.20;34.41;102380.66;5074329;28;20028;-76
2022/08/10 11:14:59;;;;;;;5.90;2.60;;;;;;;29.01;34.11;102381.38;5073631;28;20035;-75
2022/08/10 11:17:44;;;;;;;8.15;2.30;;;;;;;29.11;35.65;102378.31;5073974;28;20509;-83
2022/08/10 11:20:28;;;;;;;5.80;2.47;;;;;;;29.23;34.15;102364.03;5073295;28;20069;-83
2022/08/10 11:23:09;;;;;;;7.32;2.22;;;;;;;29.61;33.11;102360.88;5076146;28;20029;-82
2022/08/10 11:25:43;;;;;;;7.15;2.28;;;;;;;29.72;33.24;102360.31;5073523;28;20493;-75
2022/08/10 11:28:14;;;;;;;13.18;2.80;;;;;;;29.67;32.49;102354.66;5073358;28;20033;-83
2022/08/10 11:30:48;;;;;;;15.23;2.75;;;;;;;29.78;32.55;102359.50;5073744;28;20415;-83
2022/08/10 11:33:45;;;;;;;5.90;2.35;;;;;;;29.81;33.55;102366.41;5071194;28;20028;-75
2022/08/10 11:36:48;;;;;;;5.78;2.55;;;;;;;29.87;33.21;102362.84;5080172;28;20052;-75
2022/08/10 11:39:20;;;;;;;;;;;;;;;30.08;33.55;102361.91;5075699;28;20032;-82
2022/08/10 11:41:55;;;;;;;4.45;2.33;;;;;;;30.16;32.57;102350.84;5072661;28;20003;-75
2022/08/10 11:44:36;;;;;;;7.60;2.33;;;;;;;30.17;33.16;102355.25;5063747;28;20557;-83
2022/08/10 11:47:11;;;;;;;5.40;2.50;;;;;;;30.07;32.10;102354.81;5072014;28;20021;-81
2022/08/10 11:50:02;;;;;;;2.60;2.40;;;;;;;30.04;32.14;102355.22;5074032;28;20478;-75
2022/08/10 11:52:44;;;;;;;5.45;2.40;;;;;;;29.67;31.57;102359.25;5073135;28;20027;-75
2022/08/10 11:55:24;;;;;;;3.55;2.40;;;;;;;29.81;31.38;102350.94;5071694;28;20021;-75